Aérodrome :
LOGIN :

S'inscrire | Disclaimer

   EN    FR    IT 

 










Légende :    VFR   VFR Marginal   IFR   IFR Intensif   IFR Très Intensif
Visi : 
Plafond : 
>= 8 km
>= 3000ft
5 à 8 km
1000 à 3000 ft
1500m à 5 km
500 à 1000 ft
800 à 1500m
200 à 500 ft
< 800m
< 200 ft
Symboles :   Orages  Brouillard  Fortes neiges  Fortes précipitations  Vent > 20 kt
SIGMETs :   Divers  Orages  Givrage  Turbulence  Onde Orograph.  Cendres Volcan.






- Altitude de l'aérodrome : 357 ft
- Code IATA : TUF


LFOT - Tours

DERNIER METAR :
  • 111800Z AUTO 08007KT CAVOK 30/17 Q1013 TEMPO VRB20G40KT 2000 TSRAGR BKN070CB

METARs EXPIRÉS :
  • 111730Z AUTO 10005KT 060V150 CAVOK 32/17 Q1013 TEMPO VRB20G40KT 2000 TSRAGR BKN070CB
  • 111700Z AUTO 14004KT 110V190 CAVOK 33/16 Q1012 TEMPO VRB20G40KT 4000 TSRAGR BKN070CB
  • 111630Z AUTO 12007KT 080V170 CAVOK 33/16 Q1012 TEMPO VRB20G40KT 4000 TSRAGR BKN070CB
  • 111600Z AUTO 13009KT 090V160 CAVOK 33/16 Q1012 TEMPO VRB20G40KT 4000 TSRAGR BKN070CB
  • 111530Z AUTO 12010KT CAVOK 33/17 Q1012 TEMPO VRB20G40KT 4000 TSRAGR BKN070CB

TAF TAF LFOT
Valide du 11 à 18h jusqu'au 12 à 18h UTC


111700Z 1118/1218 VRB05KT CAVOK
TEMPO 1118/1124 -SHRA SCT070TCU
PROB40
TEMPO 1118/1124 VRB20G40KT 2000 TSRAGR BKN070CB
PROB40
TEMPO 1208/1218 -SHRA SCT070TCU
PROB30
TEMPO 1212/1218 VRB15G35KT 2000 TSRAGR BKN070CB



MET'MAP, la Météo Aéronautique d'un coup d'oeil ! - Copyright ORBIFLY Décembre 2007 - Disclaimer

ORBIFLY MET'MAP TEAM :

Programmation & Développement : Alexandra Zaïnal
Sur une idée originale de : Baudouin d'Aumeries
Assistance à la programmation : Marc-Olivier Méhu
Soutien technique & logistique : Manuel Goepfert

Contact : metmap@orbifly.com




SOURCES & CREDITS :

   NOAA